sim
Sign-in with your pilot id or email,
or register
Callsign
Passwort

Schedule Details

Flight Number: OEO3285
Departure: Almería International Airport (LEAM) at 09:40
Arrival: Munich Airport (EDDM) at 12:20

Weather Information
Getting current METAR information for LEAM 231500Z 20010KT 170V250 CAVOK 25/19 Q1012
Getting current METAR information for EDDM 231450Z 24007KT 9999 FEW043 19/15 Q1009 NOSIG

Schedule Frequency

Route Map